sensor_id;sensor_type;location;lat;lon;timestamp;temperature;humidity
67820;DHT22;54618;52.018;5.576;2023-02-25T00:01:53;17.40;48.70
67820;DHT22;54618;52.018;5.576;2023-02-25T00:04:21;17.40;48.70
67820;DHT22;54618;52.018;5.576;2023-02-25T00:06:46;17.40;48.70
67820;DHT22;54618;52.018;5.576;2023-02-25T00:09:12;17.40;48.70
67820;DHT22;54618;52.018;5.576;2023-02-25T00:11:37;17.30;48.70
67820;DHT22;54618;52.018;5.576;2023-02-25T00:14:03;17.30;48.70
67820;DHT22;54618;52.018;5.576;2023-02-25T00:16:29;17.30;48.80
67820;DHT22;54618;52.018;5.576;2023-02-25T00:18:56;17.30;48.80
67820;DHT22;54618;52.018;5.576;2023-02-25T00:21:22;17.30;48.70
67820;DHT22;54618;52.018;5.576;2023-02-25T00:23:49;17.30;48.80
67820;DHT22;54618;52.018;5.576;2023-02-25T00:26:18;17.30;48.70
67820;DHT22;54618;52.018;5.576;2023-02-25T00:28:43;17.20;48.70
67820;DHT22;54618;52.018;5.576;2023-02-25T00:31:11;17.20;48.70
67820;DHT22;54618;52.018;5.576;2023-02-25T00:33:37;17.20;48.70
67820;DHT22;54618;52.018;5.576;2023-02-25T00:36:07;17.20;48.80
67820;DHT22;54618;52.018;5.576;2023-02-25T00:38:33;17.20;48.80
67820;DHT22;54618;52.018;5.576;2023-02-25T00:41:07;17.20;48.80
67820;DHT22;54618;52.018;5.576;2023-02-25T00:43:39;17.20;48.80
67820;DHT22;54618;52.018;5.576;2023-02-25T00:46:04;17.10;48.80
67820;DHT22;54618;52.018;5.576;2023-02-25T00:48:30;17.20;48.90
67820;DHT22;54618;52.018;5.576;2023-02-25T00:50:55;17.10;48.80
67820;DHT22;54618;52.018;5.576;2023-02-25T00:53:21;17.10;48.90
67820;DHT22;54618;52.018;5.576;2023-02-25T00:55:47;17.10;48.90
67820;DHT22;54618;52.018;5.576;2023-02-25T00:58:12;17.10;48.90
67820;DHT22;54618;52.018;5.576;2023-02-25T01:00:38;17.10;48.90
67820;DHT22;54618;52.018;5.576;2023-02-25T01:03:03;17.10;48.90
67820;DHT22;54618;52.018;5.576;2023-02-25T01:05:29;17.10;49.00
67820;DHT22;54618;52.018;5.576;2023-02-25T01:07:54;17.10;48.90
67820;DHT22;54618;52.018;5.576;2023-02-25T01:10:21;17.00;48.90
67820;DHT22;54618;52.018;5.576;2023-02-25T01:12:47;17.00;48.90
67820;DHT22;54618;52.018;5.576;2023-02-25T01:15:12;17.00;48.90
67820;DHT22;54618;52.018;5.576;2023-02-25T01:17:38;17.00;49.00
67820;DHT22;54618;52.018;5.576;2023-02-25T01:20:04;17.00;49.00
67820;DHT22;54618;52.018;5.576;2023-02-25T01:22:35;17.00;49.00
67820;DHT22;54618;52.018;5.576;2023-02-25T01:25:09;17.00;49.10
67820;DHT22;54618;52.018;5.576;2023-02-25T01:27:35;17.00;49.10
67820;DHT22;54618;52.018;5.576;2023-02-25T01:30:00;17.00;49.10
67820;DHT22;54618;52.018;5.576;2023-02-25T01:32:26;17.00;49.10
67820;DHT22;54618;52.018;5.576;2023-02-25T01:34:51;16.90;49.10
67820;DHT22;54618;52.018;5.576;2023-02-25T01:37:17;16.90;49.70
67820;DHT22;54618;52.018;5.576;2023-02-25T01:39:43;16.90;49.10
67820;DHT22;54618;52.018;5.576;2023-02-25T01:42:14;16.90;49.10
67820;DHT22;54618;52.018;5.576;2023-02-25T01:45:33;16.90;49.20
67820;DHT22;54618;52.018;5.576;2023-02-25T01:48:12;16.90;49.80
67820;DHT22;54618;52.018;5.576;2023-02-25T01:50:45;16.90;49.20
67820;DHT22;54618;52.018;5.576;2023-02-25T01:53:12;16.90;49.10
67820;DHT22;54618;52.018;5.576;2023-02-25T01:55:39;16.90;49.10
67820;DHT22;54618;52.018;5.576;2023-02-25T01:58:06;16.80;49.10
67820;DHT22;54618;52.018;5.576;2023-02-25T02:00:35;16.80;49.10
67820;DHT22;54618;52.018;5.576;2023-02-25T02:03:01;16.80;49.10
67820;DHT22;54618;52.018;5.576;2023-02-25T02:05:39;16.80;49.10
67820;DHT22;54618;52.018;5.576;2023-02-25T02:08:09;16.80;49.40
67820;DHT22;54618;52.018;5.576;2023-02-25T02:10:34;16.80;49.10
67820;DHT22;54618;52.018;5.576;2023-02-25T02:13:00;16.80;49.20
67820;DHT22;54618;52.018;5.576;2023-02-25T02:15:27;16.70;49.20
67820;DHT22;54618;52.018;5.576;2023-02-25T02:17:59;16.70;49.10
67820;DHT22;54618;52.018;5.576;2023-02-25T02:20:29;16.70;49.10
67820;DHT22;54618;52.018;5.576;2023-02-25T02:26:15;16.70;49.80
67820;DHT22;54618;52.018;5.576;2023-02-25T02:35:03;16.70;50.20
67820;DHT22;54618;52.018;5.576;2023-02-25T02:37:41;16.70;49.20
67820;DHT22;54618;52.018;5.576;2023-02-25T02:40:38;16.70;49.30
67820;DHT22;54618;52.018;5.576;2023-02-25T02:43:10;16.70;50.00
67820;DHT22;54618;52.018;5.576;2023-02-25T02:45:47;16.70;49.30
67820;DHT22;54618;52.018;5.576;2023-02-25T02:48:21;16.60;49.30
67820;DHT22;54618;52.018;5.576;2023-02-25T02:50:54;16.60;49.40
67820;DHT22;54618;52.018;5.576;2023-02-25T02:53:43;16.60;49.20
67820;DHT22;54618;52.018;5.576;2023-02-25T02:56:13;16.60;49.90
67820;DHT22;54618;52.018;5.576;2023-02-25T02:58:46;16.60;49.30
67820;DHT22;54618;52.018;5.576;2023-02-25T03:01:20;16.60;49.40
67820;DHT22;54618;52.018;5.576;2023-02-25T03:03:52;16.60;49.30
67820;DHT22;54618;52.018;5.576;2023-02-25T03:06:27;16.60;49.30
67820;DHT22;54618;52.018;5.576;2023-02-25T03:08:57;16.60;48.90
67820;DHT22;54618;52.018;5.576;2023-02-25T03:11:25;16.90;48.70
67820;DHT22;54618;52.018;5.576;2023-02-25T03:13:51;17.20;48.00
67820;DHT22;54618;52.018;5.576;2023-02-25T03:16:22;17.60;47.70
67820;DHT22;54618;52.018;5.576;2023-02-25T03:19:07;17.90;47.30
67820;DHT22;54618;52.018;5.576;2023-02-25T03:21:38;18.00;47.30
67820;DHT22;54618;52.018;5.576;2023-02-25T03:24:07;18.00;47.30
67820;DHT22;54618;52.018;5.576;2023-02-25T03:26:35;17.90;47.20
67820;DHT22;54618;52.018;5.576;2023-02-25T03:29:02;17.90;47.30
67820;DHT22;54618;52.018;5.576;2023-02-25T03:31:35;17.90;47.30
67820;DHT22;54618;52.018;5.576;2023-02-25T03:34:07;17.90;47.60
67820;DHT22;54618;52.018;5.576;2023-02-25T03:36:46;17.80;47.50
67820;DHT22;54618;52.018;5.576;2023-02-25T03:39:17;17.80;47.70
67820;DHT22;54618;52.018;5.576;2023-02-25T03:41:50;17.70;47.70
67820;DHT22;54618;52.018;5.576;2023-02-25T03:44:21;17.70;47.80
67820;DHT22;54618;52.018;5.576;2023-02-25T03:46:48;17.70;48.60
67820;DHT22;54618;52.018;5.576;2023-02-25T03:49:25;17.60;47.90
67820;DHT22;54618;52.018;5.576;2023-02-25T03:51:53;17.60;47.90
67820;DHT22;54618;52.018;5.576;2023-02-25T03:54:19;17.60;47.80
67820;DHT22;54618;52.018;5.576;2023-02-25T03:56:50;17.60;47.90
67820;DHT22;54618;52.018;5.576;2023-02-25T03:59:17;17.70;47.90
67820;DHT22;54618;52.018;5.576;2023-02-25T04:01:46;17.70;47.80
67820;DHT22;54618;52.018;5.576;2023-02-25T04:04:13;17.70;47.80
67820;DHT22;54618;52.018;5.576;2023-02-25T04:06:38;17.70;47.80
67820;DHT22;54618;52.018;5.576;2023-02-25T04:09:04;17.70;47.80
67820;DHT22;54618;52.018;5.576;2023-02-25T04:11:30;17.80;47.80
67820;DHT22;54618;52.018;5.576;2023-02-25T04:13:56;17.80;47.80
67820;DHT22;54618;52.018;5.576;2023-02-25T04:16:22;17.80;47.70
67820;DHT22;54618;52.018;5.576;2023-02-25T04:18:47;17.80;47.70
67820;DHT22;54618;52.018;5.576;2023-02-25T04:23:50;17.80;47.90
67820;DHT22;54618;52.018;5.576;2023-02-25T04:26:16;17.80;47.60
67820;DHT22;54618;52.018;5.576;2023-02-25T04:28:41;17.80;47.60
67820;DHT22;54618;52.018;5.576;2023-02-25T04:31:07;17.80;47.60
67820;DHT22;54618;52.018;5.576;2023-02-25T04:33:32;17.90;47.70
67820;DHT22;54618;52.018;5.576;2023-02-25T04:35:58;17.90;47.60
67820;DHT22;54618;52.018;5.576;2023-02-25T04:38:23;17.90;47.60
67820;DHT22;54618;52.018;5.576;2023-02-25T04:40:52;17.80;47.60
67820;DHT22;54618;52.018;5.576;2023-02-25T04:43:18;17.80;47.60
67820;DHT22;54618;52.018;5.576;2023-02-25T04:45:43;17.90;47.60
67820;DHT22;54618;52.018;5.576;2023-02-25T04:48:09;17.90;47.60
67820;DHT22;54618;52.018;5.576;2023-02-25T04:50:34;17.80;47.60
67820;DHT22;54618;52.018;5.576;2023-02-25T04:53:00;17.80;47.60
67820;DHT22;54618;52.018;5.576;2023-02-25T04:55:29;17.80;47.60
67820;DHT22;54618;52.018;5.576;2023-02-25T04:57:54;17.90;47.70
67820;DHT22;54618;52.018;5.576;2023-02-25T05:00:21;17.90;47.60
67820;DHT22;54618;52.018;5.576;2023-02-25T05:02:51;17.90;47.60
67820;DHT22;54618;52.018;5.576;2023-02-25T05:05:17;17.90;48.30
67820;DHT22;54618;52.018;5.576;2023-02-25T05:07:43;17.80;47.50
67820;DHT22;54618;52.018;5.576;2023-02-25T05:10:11;17.80;47.50
67820;DHT22;54618;52.018;5.576;2023-02-25T05:12:37;17.80;47.50
67820;DHT22;54618;52.018;5.576;2023-02-25T05:15:03;17.80;47.50
67820;DHT22;54618;52.018;5.576;2023-02-25T05:17:30;17.90;47.50
67820;DHT22;54618;52.018;5.576;2023-02-25T05:19:56;17.80;47.50
67820;DHT22;54618;52.018;5.576;2023-02-25T05:22:23;17.80;47.50
67820;DHT22;54618;52.018;5.576;2023-02-25T05:24:49;17.80;47.60
67820;DHT22;54618;52.018;5.576;2023-02-25T05:27:14;17.80;47.50
67820;DHT22;54618;52.018;5.576;2023-02-25T05:29:40;17.80;47.50
67820;DHT22;54618;52.018;5.576;2023-02-25T05:32:05;17.80;47.50
67820;DHT22;54618;52.018;5.576;2023-02-25T05:34:32;17.80;47.60
67820;DHT22;54618;52.018;5.576;2023-02-25T05:36:57;17.80;47.50
67820;DHT22;54618;52.018;5.576;2023-02-25T05:39:23;17.90;47.60
67820;DHT22;54618;52.018;5.576;2023-02-25T05:41:48;17.90;47.60
67820;DHT22;54618;52.018;5.576;2023-02-25T05:44:16;17.90;47.50
67820;DHT22;54618;52.018;5.576;2023-02-25T05:46:41;17.90;47.50
67820;DHT22;54618;52.018;5.576;2023-02-25T05:49:07;17.90;47.50
67820;DHT22;54618;52.018;5.576;2023-02-25T05:51:33;17.80;47.50
67820;DHT22;54618;52.018;5.576;2023-02-25T05:53:59;17.80;47.50
67820;DHT22;54618;52.018;5.576;2023-02-25T05:56:24;17.80;47.50
67820;DHT22;54618;52.018;5.576;2023-02-25T05:58:52;17.80;47.50
67820;DHT22;54618;52.018;5.576;2023-02-25T06:01:22;17.90;48.20
67820;DHT22;54618;52.018;5.576;2023-02-25T06:03:49;17.80;47.60
67820;DHT22;54618;52.018;5.576;2023-02-25T06:06:17;17.80;47.60
67820;DHT22;54618;52.018;5.576;2023-02-25T06:08:47;17.90;47.60
67820;DHT22;54618;52.018;5.576;2023-02-25T06:11:18;17.80;47.60
67820;DHT22;54618;52.018;5.576;2023-02-25T06:13:44;17.90;47.70
67820;DHT22;54618;52.018;5.576;2023-02-25T06:16:11;17.80;47.60
67820;DHT22;54618;52.018;5.576;2023-02-25T06:18:36;17.80;47.60
67820;DHT22;54618;52.018;5.576;2023-02-25T06:21:04;17.70;47.70
67820;DHT22;54618;52.018;5.576;2023-02-25T06:23:31;17.60;47.80
67820;DHT22;54618;52.018;5.576;2023-02-25T06:25:57;17.50;47.90
67820;DHT22;54618;52.018;5.576;2023-02-25T06:28:23;17.40;48.00
67820;DHT22;54618;52.018;5.576;2023-02-25T06:30:48;17.30;48.20
67820;DHT22;54618;52.018;5.576;2023-02-25T06:33:14;17.20;48.20
67820;DHT22;54618;52.018;5.576;2023-02-25T06:35:39;17.20;48.30
67820;DHT22;54618;52.018;5.576;2023-02-25T06:38:05;17.30;48.20
67820;DHT22;54618;52.018;5.576;2023-02-25T06:40:30;17.70;47.80
67820;DHT22;54618;52.018;5.576;2023-02-25T06:42:58;18.20;47.10
67820;DHT22;54618;52.018;5.576;2023-02-25T06:45:23;18.60;46.60
67820;DHT22;54618;52.018;5.576;2023-02-25T06:47:49;19.10;46.10
67820;DHT22;54618;52.018;5.576;2023-02-25T06:50:15;19.40;45.60
67820;DHT22;54618;52.018;5.576;2023-02-25T06:52:42;19.70;45.40
67820;DHT22;54618;52.018;5.576;2023-02-25T06:55:08;20.00;45.10
67820;DHT22;54618;52.018;5.576;2023-02-25T06:57:34;20.20;45.00
67820;DHT22;54618;52.018;5.576;2023-02-25T07:00:00;20.30;45.40
67820;DHT22;54618;52.018;5.576;2023-02-25T07:02:25;20.50;44.70
67820;DHT22;54618;52.018;5.576;2023-02-25T07:04:54;20.60;44.70
67820;DHT22;54618;52.018;5.576;2023-02-25T07:07:21;20.70;44.70
67820;DHT22;54618;52.018;5.576;2023-02-25T07:09:47;20.80;44.60
67820;DHT22;54618;52.018;5.576;2023-02-25T07:12:12;20.90;44.60
67820;DHT22;54618;52.018;5.576;2023-02-25T07:14:38;20.90;44.60
67820;DHT22;54618;52.018;5.576;2023-02-25T07:17:04;21.00;44.70
67820;DHT22;54618;52.018;5.576;2023-02-25T07:19:30;21.00;44.70
67820;DHT22;54618;52.018;5.576;2023-02-25T07:21:56;21.10;44.70
67820;DHT22;54618;52.018;5.576;2023-02-25T07:24:22;21.10;44.70
67820;DHT22;54618;52.018;5.576;2023-02-25T07:26:48;21.10;44.70
67820;DHT22;54618;52.018;5.576;2023-02-25T07:29:14;21.10;44.70
67820;DHT22;54618;52.018;5.576;2023-02-25T07:31:40;21.20;44.70
67820;DHT22;54618;52.018;5.576;2023-02-25T07:34:05;21.20;44.70
67820;DHT22;54618;52.018;5.576;2023-02-25T07:36:32;21.30;44.70
67820;DHT22;54618;52.018;5.576;2023-02-25T07:39:00;21.30;44.70
67820;DHT22;54618;52.018;5.576;2023-02-25T07:41:26;21.30;44.60
67820;DHT22;54618;52.018;5.576;2023-02-25T07:43:53;21.40;44.70
67820;DHT22;54618;52.018;5.576;2023-02-25T07:46:18;21.40;44.70
67820;DHT22;54618;52.018;5.576;2023-02-25T07:48:44;21.40;44.60
67820;DHT22;54618;52.018;5.576;2023-02-25T07:51:16;21.40;44.60
67820;DHT22;54618;52.018;5.576;2023-02-25T07:53:43;21.40;44.50
67820;DHT22;54618;52.018;5.576;2023-02-25T07:56:09;21.40;44.70
67820;DHT22;54618;52.018;5.576;2023-02-25T07:58:35;21.40;44.70
67820;DHT22;54618;52.018;5.576;2023-02-25T08:01:05;21.40;44.60
67820;DHT22;54618;52.018;5.576;2023-02-25T08:03:31;21.50;44.70
67820;DHT22;54618;52.018;5.576;2023-02-25T08:05:56;21.50;44.60
67820;DHT22;54618;52.018;5.576;2023-02-25T08:08:23;21.50;44.60
67820;DHT22;54618;52.018;5.576;2023-02-25T08:10:49;21.50;44.60
67820;DHT22;54618;52.018;5.576;2023-02-25T08:13:14;21.60;44.60
67820;DHT22;54618;52.018;5.576;2023-02-25T08:15:41;21.60;44.50
67820;DHT22;54618;52.018;5.576;2023-02-25T08:18:07;21.60;44.40
67820;DHT22;54618;52.018;5.576;2023-02-25T08:20:33;21.70;44.50
67820;DHT22;54618;52.018;5.576;2023-02-25T08:22:58;21.70;44.50
67820;DHT22;54618;52.018;5.576;2023-02-25T08:25:24;21.70;44.50
67820;DHT22;54618;52.018;5.576;2023-02-25T08:27:51;21.70;44.50
67820;DHT22;54618;52.018;5.576;2023-02-25T08:30:18;21.60;44.40
67820;DHT22;54618;52.018;5.576;2023-02-25T08:32:46;21.60;44.50
67820;DHT22;54618;52.018;5.576;2023-02-25T08:35:11;21.60;44.60
67820;DHT22;54618;52.018;5.576;2023-02-25T08:37:37;21.60;44.60
67820;DHT22;54618;52.018;5.576;2023-02-25T08:40:03;21.60;44.60
67820;DHT22;54618;52.018;5.576;2023-02-25T08:42:33;21.60;44.60
67820;DHT22;54618;52.018;5.576;2023-02-25T08:44:59;21.60;44.50
67820;DHT22;54618;52.018;5.576;2023-02-25T08:47:24;21.60;44.60
67820;DHT22;54618;52.018;5.576;2023-02-25T08:49:50;21.60;44.50
67820;DHT22;54618;52.018;5.576;2023-02-25T08:52:17;21.60;44.60
67820;DHT22;54618;52.018;5.576;2023-02-25T08:54:42;21.70;44.70
67820;DHT22;54618;52.018;5.576;2023-02-25T08:57:08;21.60;44.60
67820;DHT22;54618;52.018;5.576;2023-02-25T08:59:33;21.60;44.50
67820;DHT22;54618;52.018;5.576;2023-02-25T09:02:01;21.60;44.60
67820;DHT22;54618;52.018;5.576;2023-02-25T09:04:27;21.60;44.70
67820;DHT22;54618;52.018;5.576;2023-02-25T09:06:53;21.60;45.00
67820;DHT22;54618;52.018;5.576;2023-02-25T09:09:20;21.60;45.00
67820;DHT22;54618;52.018;5.576;2023-02-25T09:11:46;21.50;45.80
67820;DHT22;54618;52.018;5.576;2023-02-25T09:14:13;21.40;45.30
67820;DHT22;54618;52.018;5.576;2023-02-25T09:16:38;21.30;45.50
67820;DHT22;54618;52.018;5.576;2023-02-25T09:19:04;21.30;45.50
67820;DHT22;54618;52.018;5.576;2023-02-25T09:21:30;21.30;45.50
67820;DHT22;54618;52.018;5.576;2023-02-25T09:23:55;21.30;45.60
67820;DHT22;54618;52.018;5.576;2023-02-25T09:26:22;21.40;45.70
67820;DHT22;54618;52.018;5.576;2023-02-25T09:28:48;21.30;45.50
67820;DHT22;54618;52.018;5.576;2023-02-25T09:31:14;21.30;45.50
67820;DHT22;54618;52.018;5.576;2023-02-25T09:33:40;21.40;45.50
67820;DHT22;54618;52.018;5.576;2023-02-25T09:36:17;21.40;45.50
67820;DHT22;54618;52.018;5.576;2023-02-25T09:38:44;21.40;45.50
67820;DHT22;54618;52.018;5.576;2023-02-25T09:44:01;21.40;45.30
67820;DHT22;54618;52.018;5.576;2023-02-25T09:46:28;21.50;45.30
67820;DHT22;54618;52.018;5.576;2023-02-25T09:49:02;21.60;45.20
67820;DHT22;54618;52.018;5.576;2023-02-25T09:51:37;21.60;45.10
67820;DHT22;54618;52.018;5.576;2023-02-25T09:54:21;21.60;45.10
67820;DHT22;54618;52.018;5.576;2023-02-25T09:56:47;21.70;45.00
67820;DHT22;54618;52.018;5.576;2023-02-25T09:59:16;21.70;44.90
67820;DHT22;54618;52.018;5.576;2023-02-25T10:01:47;21.70;44.90
67820;DHT22;54618;52.018;5.576;2023-02-25T10:06:50;21.40;45.20
67820;DHT22;54618;52.018;5.576;2023-02-25T10:09:29;21.30;45.50
67820;DHT22;54618;52.018;5.576;2023-02-25T10:17:29;21.10;46.00
67820;DHT22;54618;52.018;5.576;2023-02-25T10:25:29;21.60;45.30
67820;DHT22;54618;52.018;5.576;2023-02-25T10:28:04;21.70;45.20
67820;DHT22;54618;52.018;5.576;2023-02-25T10:30:53;21.80;45.10
67820;DHT22;54618;52.018;5.576;2023-02-25T10:33:24;21.90;45.10
67820;DHT22;54618;52.018;5.576;2023-02-25T10:35:56;21.90;44.90
67820;DHT22;54618;52.018;5.576;2023-02-25T10:38:23;22.00;44.90
67820;DHT22;54618;52.018;5.576;2023-02-25T10:40:52;22.10;44.80
67820;DHT22;54618;52.018;5.576;2023-02-25T10:43:21;22.20;44.80
67820;DHT22;54618;52.018;5.576;2023-02-25T10:45:55;22.20;44.90
67820;DHT22;54618;52.018;5.576;2023-02-25T10:48:23;22.30;44.90
67820;DHT22;54618;52.018;5.576;2023-02-25T10:51:11;22.30;44.90
67820;DHT22;54618;52.018;5.576;2023-02-25T10:53:39;22.30;44.90
67820;DHT22;54618;52.018;5.576;2023-02-25T10:56:05;22.30;44.90
67820;DHT22;54618;52.018;5.576;2023-02-25T10:58:57;22.30;45.00
67820;DHT22;54618;52.018;5.576;2023-02-25T11:01:24;22.30;45.00
67820;DHT22;54618;52.018;5.576;2023-02-25T11:04:01;22.30;45.10
67820;DHT22;54618;52.018;5.576;2023-02-25T11:06:35;22.20;45.10
67820;DHT22;54618;52.018;5.576;2023-02-25T11:09:04;22.20;45.20
67820;DHT22;54618;52.018;5.576;2023-02-25T11:11:32;22.20;45.20
67820;DHT22;54618;52.018;5.576;2023-02-25T11:14:15;22.20;45.30
67820;DHT22;54618;52.018;5.576;2023-02-25T11:16:43;22.10;45.30
67820;DHT22;54618;52.018;5.576;2023-02-25T11:19:21;22.20;45.30
67820;DHT22;54618;52.018;5.576;2023-02-25T11:21:49;22.20;45.30
67820;DHT22;54618;52.018;5.576;2023-02-25T11:24:21;22.20;45.30
67820;DHT22;54618;52.018;5.576;2023-02-25T11:26:52;22.10;45.30
67820;DHT22;54618;52.018;5.576;2023-02-25T11:29:33;22.10;45.30
67820;DHT22;54618;52.018;5.576;2023-02-25T11:32:00;22.10;45.30
67820;DHT22;54618;52.018;5.576;2023-02-25T11:34:29;22.10;45.30
67820;DHT22;54618;52.018;5.576;2023-02-25T11:36:59;22.10;45.30
67820;DHT22;54618;52.018;5.576;2023-02-25T11:39:51;22.10;45.20
67820;DHT22;54618;52.018;5.576;2023-02-25T11:42:24;22.00;45.20
67820;DHT22;54618;52.018;5.576;2023-02-25T11:45:01;22.10;45.20
67820;DHT22;54618;52.018;5.576;2023-02-25T11:47:32;22.20;45.10
67820;DHT22;54618;52.018;5.576;2023-02-25T11:55:27;21.90;45.30
67820;DHT22;54618;52.018;5.576;2023-02-25T11:58:15;21.90;45.30
67820;DHT22;54618;52.018;5.576;2023-02-25T12:06:21;21.90;45.50
67820;DHT22;54618;52.018;5.576;2023-02-25T12:17:58;22.10;45.10
67820;DHT22;54618;52.018;5.576;2023-02-25T12:28:50;22.20;45.40
67820;DHT22;54618;52.018;5.576;2023-02-25T12:43:32;22.30;45.70
67820;DHT22;54618;52.018;5.576;2023-02-25T12:49:06;22.30;45.70
67820;DHT22;54618;52.018;5.576;2023-02-25T12:52:14;22.30;45.70
67820;DHT22;54618;52.018;5.576;2023-02-25T12:57:32;22.30;45.60
67820;DHT22;54618;52.018;5.576;2023-02-25T13:00:23;22.30;45.50
67820;DHT22;54618;52.018;5.576;2023-02-25T13:03:12;22.40;45.80
67820;DHT22;54618;52.018;5.576;2023-02-25T13:11:31;22.40;45.50
67820;DHT22;54618;52.018;5.576;2023-02-25T13:17:23;22.30;45.50
67820;DHT22;54618;52.018;5.576;2023-02-25T13:20:18;22.40;45.40
67820;DHT22;54618;52.018;5.576;2023-02-25T13:23:01;22.40;45.40
67820;DHT22;54618;52.018;5.576;2023-02-25T13:31:16;22.30;45.40
67820;DHT22;54618;52.018;5.576;2023-02-25T13:39:15;22.30;45.20
67820;DHT22;54618;52.018;5.576;2023-02-25T13:48:10;22.30;45.10
67820;DHT22;54618;52.018;5.576;2023-02-25T13:56:31;22.30;45.10
67820;DHT22;54618;52.018;5.576;2023-02-25T14:05:32;22.30;45.10
67820;DHT22;54618;52.018;5.576;2023-02-25T14:07:46;22.20;45.00
67820;DHT22;54618;52.018;5.576;2023-02-25T14:16:27;22.20;45.20
67820;DHT22;54618;52.018;5.576;2023-02-25T14:27:18;22.20;45.00
67820;DHT22;54618;52.018;5.576;2023-02-25T14:38:10;22.20;44.90
67820;DHT22;54618;52.018;5.576;2023-02-25T14:48:46;22.10;44.90
67820;DHT22;54618;52.018;5.576;2023-02-25T14:51:50;22.20;44.90
67820;DHT22;54618;52.018;5.576;2023-02-25T14:54:48;22.20;44.90
67820;DHT22;54618;52.018;5.576;2023-02-25T15:03:54;22.10;44.80
67820;DHT22;54618;52.018;5.576;2023-02-25T15:18:11;22.10;44.70
67820;DHT22;54618;52.018;5.576;2023-02-25T15:20:42;22.10;44.90
67820;DHT22;54618;52.018;5.576;2023-02-25T15:23:09;22.10;44.80
67820;DHT22;54618;52.018;5.576;2023-02-25T15:28:03;22.10;44.80
67820;DHT22;54618;52.018;5.576;2023-02-25T15:33:41;22.10;44.80
67820;DHT22;54618;52.018;5.576;2023-02-25T15:38:49;22.10;44.80
67820;DHT22;54618;52.018;5.576;2023-02-25T15:41:39;22.10;44.80
67820;DHT22;54618;52.018;5.576;2023-02-25T15:51:51;22.10;44.70
67820;DHT22;54618;52.018;5.576;2023-02-25T15:56:53;22.10;44.70
67820;DHT22;54618;52.018;5.576;2023-02-25T15:59:45;22.10;44.70
67820;DHT22;54618;52.018;5.576;2023-02-25T16:05:15;22.00;44.70
67820;DHT22;54618;52.018;5.576;2023-02-25T16:07:48;22.10;44.70
67820;DHT22;54618;52.018;5.576;2023-02-25T16:12:47;22.10;44.70
67820;DHT22;54618;52.018;5.576;2023-02-25T16:17:47;22.10;44.70
67820;DHT22;54618;52.018;5.576;2023-02-25T16:20:40;22.10;44.80
67820;DHT22;54618;52.018;5.576;2023-02-25T16:23:11;22.00;44.60
67820;DHT22;54618;52.018;5.576;2023-02-25T16:29:37;22.10;45.10
67820;DHT22;54618;52.018;5.576;2023-02-25T16:31:36;22.10;45.20
67820;DHT22;54618;52.018;5.576;2023-02-25T16:34:22;22.00;45.20
67820;DHT22;54618;52.018;5.576;2023-02-25T16:39:26;22.10;45.40
67820;DHT22;54618;52.018;5.576;2023-02-25T16:41:53;22.10;45.30
67820;DHT22;54618;52.018;5.576;2023-02-25T16:44:25;22.10;45.30
67820;DHT22;54618;52.018;5.576;2023-02-25T16:46:52;22.00;45.30
67820;DHT22;54618;52.018;5.576;2023-02-25T16:49:26;22.00;45.30
67820;DHT22;54618;52.018;5.576;2023-02-25T16:51:53;22.00;45.40
67820;DHT22;54618;52.018;5.576;2023-02-25T16:54:26;22.00;45.30
67820;DHT22;54618;52.018;5.576;2023-02-25T16:56:58;22.10;45.40
67820;DHT22;54618;52.018;5.576;2023-02-25T16:59:24;22.00;45.50
67820;DHT22;54618;52.018;5.576;2023-02-25T17:02:02;22.10;45.60
67820;DHT22;54618;52.018;5.576;2023-02-25T17:04:34;22.10;45.90
67820;DHT22;54618;52.018;5.576;2023-02-25T17:09:56;21.80;46.10
67820;DHT22;54618;52.018;5.576;2023-02-25T17:15:00;21.40;46.50
67820;DHT22;54618;52.018;5.576;2023-02-25T17:17:35;21.20;46.70
67820;DHT22;54618;52.018;5.576;2023-02-25T17:20:04;21.10;46.80
67820;DHT22;54618;52.018;5.576;2023-02-25T17:22:31;21.00;47.00
67820;DHT22;54618;52.018;5.576;2023-02-25T17:24:58;20.80;47.10
67820;DHT22;54618;52.018;5.576;2023-02-25T17:27:24;20.80;47.30
67820;DHT22;54618;52.018;5.576;2023-02-25T17:29:50;20.60;47.30
67820;DHT22;54618;52.018;5.576;2023-02-25T17:32:25;20.60;47.50
67820;DHT22;54618;52.018;5.576;2023-02-25T17:34:54;20.50;47.60
67820;DHT22;54618;52.018;5.576;2023-02-25T17:37:22;20.40;47.70
67820;DHT22;54618;52.018;5.576;2023-02-25T17:39:50;20.30;47.60
67820;DHT22;54618;52.018;5.576;2023-02-25T17:42:36;20.20;47.70
67820;DHT22;54618;52.018;5.576;2023-02-25T17:45:05;20.20;48.30
67820;DHT22;54618;52.018;5.576;2023-02-25T17:47:34;20.10;47.90
67820;DHT22;54618;52.018;5.576;2023-02-25T17:50:19;20.00;48.00
67820;DHT22;54618;52.018;5.576;2023-02-25T17:52:47;19.90;48.30
67820;DHT22;54618;52.018;5.576;2023-02-25T17:55:26;19.80;48.10
67820;DHT22;54618;52.018;5.576;2023-02-25T17:57:57;19.80;48.30
67820;DHT22;54618;52.018;5.576;2023-02-25T18:00:32;19.70;48.20
67820;DHT22;54618;52.018;5.576;2023-02-25T18:03:15;19.60;48.20
67820;DHT22;54618;52.018;5.576;2023-02-25T18:05:52;19.60;48.40
67820;DHT22;54618;52.018;5.576;2023-02-25T18:08:23;19.50;48.20
67820;DHT22;54618;52.018;5.576;2023-02-25T18:11:20;19.50;48.20
67820;DHT22;54618;52.018;5.576;2023-02-25T18:13:48;19.40;48.40
67820;DHT22;54618;52.018;5.576;2023-02-25T18:16:35;19.30;48.10
67820;DHT22;54618;52.018;5.576;2023-02-25T18:19:07;19.30;48.50
67820;DHT22;54618;52.018;5.576;2023-02-25T18:21:39;19.30;48.20
67820;DHT22;54618;52.018;5.576;2023-02-25T18:24:07;19.20;48.20
67820;DHT22;54618;52.018;5.576;2023-02-25T18:26:34;19.20;48.10
67820;DHT22;54618;52.018;5.576;2023-02-25T18:29:00;19.10;48.10
67820;DHT22;54618;52.018;5.576;2023-02-25T18:31:25;19.10;48.10
67820;DHT22;54618;52.018;5.576;2023-02-25T18:33:51;19.10;48.10
67820;DHT22;54618;52.018;5.576;2023-02-25T18:36:22;19.00;48.10
67820;DHT22;54618;52.018;5.576;2023-02-25T18:38:51;19.00;48.20
67820;DHT22;54618;52.018;5.576;2023-02-25T18:41:17;19.00;48.10
67820;DHT22;54618;52.018;5.576;2023-02-25T18:43:44;18.90;48.10
67820;DHT22;54618;52.018;5.576;2023-02-25T18:46:09;18.90;48.10
67820;DHT22;54618;52.018;5.576;2023-02-25T18:48:36;18.90;48.10
67820;DHT22;54618;52.018;5.576;2023-02-25T18:51:03;18.80;48.10
67820;DHT22;54618;52.018;5.576;2023-02-25T18:53:30;18.80;48.10
67820;DHT22;54618;52.018;5.576;2023-02-25T18:55:57;18.80;48.20
67820;DHT22;54618;52.018;5.576;2023-02-25T18:58:23;18.80;48.20
67820;DHT22;54618;52.018;5.576;2023-02-25T19:00:52;18.70;48.10
67820;DHT22;54618;52.018;5.576;2023-02-25T19:03:32;18.70;48.10
67820;DHT22;54618;52.018;5.576;2023-02-25T19:05:58;18.70;48.20
67820;DHT22;54618;52.018;5.576;2023-02-25T19:08:24;18.70;48.10